Time;durP1;ratioP1;P1;durP2;ratioP2;P2;SDS_P1;SDS_P2;PMS_P1;PMS_P2;Temp;Humidity;BMP_temperature;BMP_pressure;BME280_temperature;BME280_humidity;BME280_pressure;Samples;Min_cycle;Max_cycle;Signal;HPM_P1;HPM_P2
2022/09/26 00:01:59;;;;;;;;;;;17.70;99.90;;;;;;4971199;28;19911;-71
2022/09/26 00:04:27;;;;;;;;;;;17.80;99.80;;;;;;4970907;28;19930;-72
2022/09/26 00:06:54;;;;;;;;;;;17.60;99.40;;;;;;4971154;28;19917;-70
2022/09/26 00:09:22;;;;;;;;;;;17.60;99.60;;;;;;4970778;28;19956;-69
2022/09/26 00:11:48;;;;;;;;;;;17.70;99.80;;;;;;4970856;28;19917;-69
2022/09/26 00:14:18;;;;;;;;;;;17.70;99.50;;;;;;4969437;28;20366;-70
2022/09/26 00:16:44;;;;;;;;;;;17.80;99.30;;;;;;4969432;28;19917;-69
2022/09/26 00:19:11;;;;;;;;;;;17.80;99.30;;;;;;4970981;28;19980;-69
2022/09/26 00:21:38;;;;;;;;;;;17.80;99.40;;;;;;4971062;28;19997;-68
2022/09/26 00:24:05;;;;;;;;;;;17.80;99.40;;;;;;4971024;28;19957;-74
2022/09/26 00:26:33;;;;;;;;;;;17.90;99.10;;;;;;4970704;28;19910;-69
2022/09/26 00:29:07;;;;;;;;;;;17.90;98.90;;;;;;4970801;28;20315;-73
2022/09/26 00:31:35;;;;;;;;;;;18.00;99.00;;;;;;4971098;28;20342;-69
2022/09/26 00:34:02;;;;;;;;;;;18.10;98.80;;;;;;4970496;28;19914;-69
2022/09/26 00:36:29;;;;;;;;;;;18.10;98.40;;;;;;4971314;28;19989;-69
2022/09/26 00:38:56;;;;;;;;;;;18.20;98.20;;;;;;4970457;28;20018;-73
2022/09/26 00:41:23;;;;;;;;;;;18.20;98.30;;;;;;4970193;28;19918;-69
2022/09/26 00:43:52;;;;;;;;;;;18.20;98.00;;;;;;4970442;28;19987;-70
2022/09/26 00:46:27;;;;;;;;;;;18.20;98.30;;;;;;4971296;28;19963;-69
2022/09/26 00:49:13;;;;;;;;;;;18.30;97.90;;;;;;4972042;28;19917;-69
2022/09/26 00:51:42;;;;;;;;;;;18.40;97.80;;;;;;4971211;28;19918;-69
2022/09/26 00:54:10;;;;;;;;;;;18.40;97.70;;;;;;4971428;28;19945;-70
2022/09/26 00:56:38;;;;;;;;;;;18.60;97.30;;;;;;4971157;28;19921;-68
2022/09/26 00:59:11;;;;;;;;;;;18.70;97.40;;;;;;4971049;28;20044;-72
2022/09/26 01:01:37;;;;;;;;;;;18.80;97.40;;;;;;4969919;28;19974;-69
2022/09/26 01:04:05;;;;;;;;;;;19.00;97.10;;;;;;4969899;28;19930;-70
2022/09/26 01:06:31;;;;;;;;;;;19.10;96.70;;;;;;4970125;28;19933;-70
2022/09/26 01:09:00;;;;;;;;;;;19.20;96.60;;;;;;4970528;28;20004;-70
2022/09/26 01:11:28;;;;;;;;;;;19.40;96.70;;;;;;4970225;28;20001;-70
2022/09/26 01:13:56;;;;;;;;;;;19.60;96.50;;;;;;4969819;28;19917;-68
2022/09/26 01:16:22;;;;;;;;;;;19.70;96.10;;;;;;4967640;28;19956;-68
2022/09/26 01:18:50;;;;;;;;;;;19.80;95.70;;;;;;4967224;28;19992;-69
2022/09/26 01:21:35;;;;;;;;;;;19.90;95.60;;;;;;4970179;28;19995;-69
2022/09/26 01:24:20;;;;;;;;;;;19.90;95.70;;;;;;4968876;28;19918;-70
2022/09/26 01:26:52;;;;;;;;;;;20.00;95.70;;;;;;4968461;28;19918;-69
2022/09/26 01:29:38;;;;;;;;;;;20.20;95.70;;;;;;4969491;28;19991;-71
2022/09/26 01:35:17;;;;;;;;;;;20.50;96.20;;;;;;4967151;28;20011;-71
2022/09/26 01:38:02;;;;;;;;;;;20.30;95.30;;;;;;4965635;28;20365;-70
2022/09/26 01:40:31;;;;;;;;;;;20.20;95.80;;;;;;4969756;28;19914;-73
2022/09/26 01:43:07;;;;;;;;;;;20.10;95.70;;;;;;4969540;28;20324;-75
2022/09/26 01:45:46;;;;;;;;;;;20.20;96.30;;;;;;4967070;28;19918;-70
2022/09/26 01:48:18;;;;;;;;;;;20.10;96.30;;;;;;4965459;28;19949;-70
2022/09/26 01:50:44;;;;;;;;;;;20.10;96.00;;;;;;4969168;28;19918;-73
2022/09/26 01:53:49;;;;;;;;;;;20.20;96.50;;;;;;4970107;28;19997;-68
2022/09/26 01:56:18;;;;;;;;;;;20.30;96.30;;;;;;4947601;29;19961;-75
2022/09/26 01:58:47;;;;;;;;;;;20.30;96.00;;;;;;4949127;29;20385;-69
2022/09/26 02:01:16;;;;;;;;;;;20.40;95.50;;;;;;4937550;28;19915;-70
2022/09/26 02:03:45;;;;;;;;;;;20.40;95.80;;;;;;4964531;28;19922;-69
2022/09/26 02:06:21;;;;;;;;;;;20.50;95.70;;;;;;4965541;28;20008;-69
2022/09/26 02:09:00;;;;;;;;;;;20.40;95.60;;;;;;4968177;28;20380;-75
2022/09/26 02:11:26;;;;;;;;;;;20.40;95.60;;;;;;4968003;28;20005;-73
2022/09/26 02:14:05;;;;;;;;;;;20.50;96.10;;;;;;4969828;28;20408;-69
2022/09/26 02:16:32;;;;;;;;;;;20.50;96.20;;;;;;4969444;28;20313;-72
2022/09/26 02:19:19;;;;;;;;;;;20.50;96.30;;;;;;4968016;28;19964;-68
2022/09/26 02:21:46;;;;;;;;;;;20.80;96.00;;;;;;4968794;28;19914;-76
2022/09/26 02:24:13;;;;;;;;;;;21.20;95.80;;;;;;4968833;28;20393;-70
2022/09/26 02:26:41;;;;;;;;;;;21.60;94.80;;;;;;4969523;28;20020;-69
2022/09/26 02:29:08;;;;;;;;;;;21.80;94.20;;;;;;4968864;28;19910;-71
2022/09/26 02:31:37;;;;;;;;;;;22.00;94.10;;;;;;4992868;28;19914;-76
2022/09/26 02:34:04;;;;;;;;;;;22.20;93.60;;;;;;4968042;28;19916;-78
2022/09/26 02:36:32;;;;;;;;;;;22.10;93.40;;;;;;4968015;28;20259;-67
2022/09/26 02:38:59;;;;;;;;;;;22.20;93.50;;;;;;4967181;28;19910;-75
2022/09/26 02:41:33;;;;;;;;;;;22.20;93.20;;;;;;4967131;28;19936;-73
2022/09/26 02:43:59;;;;;;;;;;;22.20;93.10;;;;;;4968076;28;19919;-74
2022/09/26 02:46:26;;;;;;;;;;;22.10;93.30;;;;;;4969075;28;20383;-78
2022/09/26 02:49:11;;;;;;;;;;;22.00;93.60;;;;;;4968061;28;19964;-74
2022/09/26 02:51:44;;;;;;;;;;;22.00;93.90;;;;;;4967394;28;19910;-75
2022/09/26 02:54:10;;;;;;;;;;;21.80;94.90;;;;;;4968317;28;19918;-72
2022/09/26 02:56:57;;;;;;;;;;;21.80;94.60;;;;;;4967398;28;20367;-72
2022/09/26 02:59:33;;;;;;;;;;;21.60;94.80;;;;;;4988144;28;19915;-69
2022/09/26 03:02:13;;;;;;;;;;;21.70;94.50;;;;;;4970919;28;19911;-69
2022/09/26 03:04:39;;;;;;;;;;;22.10;94.60;;;;;;4972539;28;19922;-68
2022/09/26 03:07:09;;;;;;;;;;;22.70;93.20;;;;;;4972735;28;19914;-72
2022/09/26 03:09:36;;;;;;;;;;;22.90;91.80;;;;;;4972647;28;19910;-67
2022/09/26 03:12:04;;;;;;;;;;;23.40;91.60;;;;;;4972307;28;19973;-69
2022/09/26 03:14:32;;;;;;;;;;;23.90;90.70;;;;;;4972157;28;20592;-72
2022/09/26 03:16:59;;;;;;;;;;;23.90;90.70;;;;;;4973198;28;19984;-68
2022/09/26 03:19:29;;;;;;;;;;;23.50;91.00;;;;;;4969741;28;19917;-69
2022/09/26 03:21:56;;;;;;;;;;;23.00;91.60;;;;;;4971387;28;19910;-70
2022/09/26 03:24:25;;;;;;;;;;;22.50;92.60;;;;;;4965588;28;19926;-70
2022/09/26 03:26:52;;;;;;;;;;;22.00;93.20;;;;;;4977091;28;19920;-75
2022/09/26 03:29:19;;;;;;;;;;;21.70;93.60;;;;;;4964021;28;19913;-74
2022/09/26 03:31:48;;;;;;;;;;;21.40;94.30;;;;;;4972898;28;19918;-69
2022/09/26 03:34:16;;;;;;;;;;;21.20;94.70;;;;;;4969625;28;19910;-68
2022/09/26 03:36:44;;;;;;;;;;;20.80;95.40;;;;;;4967558;28;20380;-69
2022/09/26 03:39:11;;;;;;;;;;;20.70;96.20;;;;;;4966760;28;19956;-69
2022/09/26 03:41:37;;;;;;;;;;;20.80;96.40;;;;;;4968230;28;20266;-72
2022/09/26 03:44:04;;;;;;;;;;;21.10;95.60;;;;;;4969228;28;20012;-73
2022/09/26 03:46:31;;;;;;;;;;;21.80;95.70;;;;;;4969255;28;19910;-70
2022/09/26 03:48:58;;;;;;;;;;;22.90;94.60;;;;;;4968883;28;20005;-70
2022/09/26 03:51:25;;;;;;;;;;;23.90;92.70;;;;;;4972193;28;20037;-70
2022/09/26 03:53:51;;;;;;;;;;;24.70;91.50;;;;;;4971812;28;19964;-70
2022/09/26 03:56:19;;;;;;;;;;;25.50;90.00;;;;;;4968993;28;19946;-72
2022/09/26 03:58:47;;;;;;;;;;;26.20;89.30;;;;;;4971387;28;19956;-70
2022/09/26 04:01:16;;;;;;;;;;;27.00;86.10;;;;;;4971177;28;19916;-71
2022/09/26 04:03:43;;;;;;;;;;;27.30;84.30;;;;;;4970932;28;19957;-74
2022/09/26 04:06:10;;;;;;;;;;;27.00;84.30;;;;;;4968469;28;20419;-74
2022/09/26 04:08:38;;;;;;;;;;;26.90;84.20;;;;;;4968122;28;19915;-70
2022/09/26 04:11:05;;;;;;;;;;;27.20;83.20;;;;;;4970676;28;19918;-71
2022/09/26 04:13:32;;;;;;;;;;;26.80;82.20;;;;;;4971588;28;19910;-69
2022/09/26 04:15:59;;;;;;;;;;;26.00;84.20;;;;;;4971401;28;19969;-71
2022/09/26 04:18:27;;;;;;;;;;;25.60;86.10;;;;;;4970775;28;20386;-69
2022/09/26 04:21:05;;;;;;;;;;;25.80;86.30;;;;;;4969148;28;19911;-69
2022/09/26 04:23:34;;;;;;;;;;;26.30;84.80;;;;;;4969060;28;19914;-69
2022/09/26 04:26:04;;;;;;;;;;;26.00;85.00;;;;;;4971183;28;19918;-68
2022/09/26 04:28:32;;;;;;;;;;;25.10;85.40;;;;;;4968540;28;19914;-69
2022/09/26 04:30:59;;;;;;;;;;;24.60;89.20;;;;;;4971039;28;19934;-70
2022/09/26 04:33:28;;;;;;;;;;;24.40;88.70;;;;;;4971257;28;19918;-68
2022/09/26 04:35:55;;;;;;;;;;;23.90;90.00;;;;;;4970505;28;19963;-69
2022/09/26 04:38:21;;;;;;;;;;;23.60;90.20;;;;;;4970932;28;19914;-69
2022/09/26 04:40:48;;;;;;;;;;;23.50;90.70;;;;;;4970976;28;19910;-70
2022/09/26 04:43:14;;;;;;;;;;;23.70;91.00;;;;;;4969396;28;19969;-69
2022/09/26 04:45:44;;;;;;;;;;;24.00;89.90;;;;;;4970515;28;20005;-68
2022/09/26 04:48:11;;;;;;;;;;;23.50;90.60;;;;;;4968440;28;20056;-69
2022/09/26 04:50:38;;;;;;;;;;;23.60;90.70;;;;;;4970768;28;19914;-68
2022/09/26 04:53:07;;;;;;;;;;;23.60;90.70;;;;;;4971038;28;19921;-68
2022/09/26 04:55:34;;;;;;;;;;;23.40;91.00;;;;;;4960216;28;19983;-69
2022/09/26 04:58:01;;;;;;;;;;;23.20;90.70;;;;;;4973479;28;19913;-74
2022/09/26 05:00:27;;;;;;;;;;;23.30;91.10;;;;;;4969480;28;20263;-71
2022/09/26 05:02:54;;;;;;;;;;;23.70;90.70;;;;;;4969926;28;19922;-71
2022/09/26 05:05:21;;;;;;;;;;;23.60;90.50;;;;;;4980822;28;19926;-68
2022/09/26 05:07:48;;;;;;;;;;;23.70;90.50;;;;;;4969368;28;19914;-72
2022/09/26 05:10:18;;;;;;;;;;;24.10;89.80;;;;;;4969133;28;20464;-68
2022/09/26 05:12:44;;;;;;;;;;;24.60;89.00;;;;;;4968094;28;19918;-68
2022/09/26 05:15:11;;;;;;;;;;;25.90;86.80;;;;;;4969151;28;19915;-70
2022/09/26 05:17:38;;;;;;;;;;;27.00;83.80;;;;;;4969659;28;19914;-77
2022/09/26 05:20:08;;;;;;;;;;;27.70;81.60;;;;;;5036844;28;20004;-69
2022/09/26 05:22:35;;;;;;;;;;;27.80;80.40;;;;;;5030876;28;19968;-72
2022/09/26 05:27:48;;;;;;;;;;;27.60;79.50;;;;;;4966827;28;20463;-70
2022/09/26 05:30:14;;;;;;;;;;;27.10;80.80;;;;;;4967501;28;19915;-70
2022/09/26 05:32:44;;;;;;;;;;;27.10;81.70;;;;;;4969187;28;20006;-69
2022/09/26 05:35:11;;;;;;;;;;;27.40;80.90;;;;;;4969001;28;19921;-69
2022/09/26 05:37:38;;;;;;;;;;;27.30;80.50;;;;;;4969676;28;20251;-71
2022/09/26 05:42:49;;;;;;;;;;;26.40;81.50;;;;;;4968146;28;20317;-69
2022/09/26 05:45:16;;;;;;;;;;;25.30;83.00;;;;;;4967226;28;19976;-70
2022/09/26 05:47:42;;;;;;;;;;;24.70;85.30;;;;;;4968079;28;19910;-68
2022/09/26 05:50:09;;;;;;;;;;;24.00;87.40;;;;;;4968710;28;19960;-70
2022/09/26 05:52:37;;;;;;;;;;;23.40;89.50;;;;;;4968719;28;19975;-69
2022/09/26 05:55:04;;;;;;;;;;;22.90;90.20;;;;;;4968996;28;19914;-71
2022/09/26 05:57:30;;;;;;;;;;;22.60;91.00;;;;;;4969318;28;19910;-72
2022/09/26 05:59:57;;;;;;;;;;;22.10;91.20;;;;;;4968697;28;20325;-71
2022/09/26 06:02:24;;;;;;;;;;;21.80;92.30;;;;;;4967133;28;19917;-71
2022/09/26 06:04:51;;;;;;;;;;;21.50;92.60;;;;;;4966978;28;19922;-73
2022/09/26 06:07:20;;;;;;;;;;;21.20;93.20;;;;;;4963681;28;20026;-72
2022/09/26 06:09:48;;;;;;;;;;;21.00;93.80;;;;;;4967712;28;19910;-69
2022/09/26 06:12:17;;;;;;;;;;;20.80;94.20;;;;;;4967842;28;19911;-71
2022/09/26 06:14:45;;;;;;;;;;;20.60;94.50;;;;;;4967136;28;19918;-69
2022/09/26 06:17:12;;;;;;;;;;;20.40;94.90;;;;;;4968753;28;19914;-71
2022/09/26 06:19:39;;;;;;;;;;;20.30;95.20;;;;;;4970281;28;20359;-77
2022/09/26 06:22:05;;;;;;;;;;;20.50;95.00;;;;;;4969659;28;19910;-68
2022/09/26 06:24:32;;;;;;;;;;;20.30;95.30;;;;;;4968066;28;19929;-69
2022/09/26 06:26:58;;;;;;;;;;;20.30;95.50;;;;;;4967310;28;19914;-72
2022/09/26 06:29:25;;;;;;;;;;;20.30;95.60;;;;;;4968847;28;20347;-71
2022/09/26 06:31:52;;;;;;;;;;;20.20;95.70;;;;;;4969709;28;19914;-73
2022/09/26 06:34:18;;;;;;;;;;;20.10;95.90;;;;;;4969693;28;19967;-70
2022/09/26 06:36:45;;;;;;;;;;;20.00;95.80;;;;;;4969677;28;19941;-69
2022/09/26 06:39:13;;;;;;;;;;;19.90;95.70;;;;;;4967194;28;19910;-70
2022/09/26 06:41:40;;;;;;;;;;;19.70;96.10;;;;;;4970150;28;19910;-71
2022/09/26 06:44:06;;;;;;;;;;;19.70;96.40;;;;;;4970540;28;19926;-70
2022/09/26 06:46:34;;;;;;;;;;;19.50;96.90;;;;;;4970239;28;19910;-70
2022/09/26 06:49:00;;;;;;;;;;;19.50;97.30;;;;;;4968827;28;19953;-70
2022/09/26 06:51:27;;;;;;;;;;;19.50;97.20;;;;;;4969932;28;20009;-69
2022/09/26 06:53:53;;;;;;;;;;;19.30;97.30;;;;;;4953907;28;19916;-69
2022/09/26 06:56:20;;;;;;;;;;;19.30;97.60;;;;;;4964930;28;19911;-69
2022/09/26 06:58:48;;;;;;;;;;;19.20;97.40;;;;;;4969282;28;19989;-69
2022/09/26 07:01:15;;;;;;;;;;;19.10;97.50;;;;;;4969282;28;20406;-69
2022/09/26 07:03:41;;;;;;;;;;;19.20;97.80;;;;;;4969198;28;19926;-69
2022/09/26 07:06:08;;;;;;;;;;;19.20;97.80;;;;;;4969596;28;19915;-68
2022/09/26 07:08:36;;;;;;;;;;;19.10;98.00;;;;;;4967178;28;19933;-69
2022/09/26 07:11:02;;;;;;;;;;;19.10;98.10;;;;;;4968541;28;19963;-69
2022/09/26 07:13:29;;;;;;;;;;;19.10;98.20;;;;;;4993684;28;19908;-70
2022/09/26 07:15:57;;;;;;;;;;;19.00;98.50;;;;;;5052891;28;19909;-76
2022/09/26 07:18:24;;;;;;;;;;;19.00;98.40;;;;;;4981693;28;19910;-76
2022/09/26 07:20:57;;;;;;;;;;;18.90;98.50;;;;;;4967886;28;20008;-72
2022/09/26 07:23:24;;;;;;;;;;;18.90;98.60;;;;;;4967382;28;20338;-73
2022/09/26 07:25:54;;;;;;;;;;;18.80;98.60;;;;;;4967852;28;19997;-74
2022/09/26 07:28:20;;;;;;;;;;;18.70;98.90;;;;;;4967486;28;20404;-68
2022/09/26 07:30:47;;;;;;;;;;;18.60;99.30;;;;;;4968190;28;19945;-75
2022/09/26 07:33:14;;;;;;;;;;;18.50;99.10;;;;;;4967784;28;19917;-69
2022/09/26 07:35:43;;;;;;;;;;;18.40;99.40;;;;;;4967912;28;19998;-71
2022/09/26 07:38:11;;;;;;;;;;;18.40;99.90;;;;;;4966224;28;19910;-74
2022/09/26 07:40:39;;;;;;;;;;;18.40;99.90;;;;;;4967249;28;19915;-73
2022/09/26 07:43:06;;;;;;;;;;;18.40;99.90;;;;;;4967162;28;19906;-70
2022/09/26 07:51:03;;;;;;;;;;;18.30;99.90;;;;;;4970271;28;19971;-79
2022/09/26 07:53:29;;;;;;;;;;;18.30;99.90;;;;;;4981750;28;19914;-70
2022/09/26 07:56:05;;;;;;;;;;;18.20;99.90;;;;;;4970079;28;20185;-70
2022/09/26 07:58:33;;;;;;;;;;;18.20;99.90;;;;;;4968009;28;19921;-73
2022/09/26 08:00:59;;;;;;;;;;;18.10;99.90;;;;;;4969903;28;20018;-73
2022/09/26 08:03:28;;;;;;;;;;;18.10;99.90;;;;;;4970928;28;20344;-69
2022/09/26 08:06:01;;;;;;;;;;;18.10;99.90;;;;;;4971454;28;19946;-69
2022/09/26 08:08:29;;;;;;;;;;;18.10;99.90;;;;;;4970643;28;19914;-71
2022/09/26 08:10:56;;;;;;;;;;;18.10;99.90;;;;;;4969046;28;20017;-72
2022/09/26 08:13:24;;;;;;;;;;;18.10;99.90;;;;;;4969948;28;19914;-69
2022/09/26 08:15:52;;;;;;;;;;;18.00;99.90;;;;;;4970558;28;19956;-71
2022/09/26 08:18:19;;;;;;;;;;;18.00;99.90;;;;;;4970234;28;19914;-74
2022/09/26 08:20:46;;;;;;;;;;;18.00;99.90;;;;;;4969368;28;20030;-70
2022/09/26 08:23:14;;;;;;;;;;;18.00;99.90;;;;;;4968090;28;19910;-70
2022/09/26 08:25:41;;;;;;;;;;;18.00;99.90;;;;;;4970390;28;20370;-71
2022/09/26 08:28:11;;;;;;;;;;;18.00;99.90;;;;;;4969658;28;20557;-71
2022/09/26 08:30:43;;;;;;;;;;;18.00;99.90;;;;;;4969779;28;19956;-69
2022/09/26 08:33:11;;;;;;;;;;;18.00;99.90;;;;;;4969876;28;19921;-70
2022/09/26 08:35:38;;;;;;;;;;;18.00;99.90;;;;;;4970398;28;19914;-74
2022/09/26 08:38:06;;;;;;;;;;;18.00;99.90;;;;;;4968991;28;19964;-70
2022/09/26 08:40:47;;;;;;;;;;;18.00;99.90;;;;;;4965821;28;19933;-70
2022/09/26 08:43:28;;;;;;;;;;;17.90;99.90;;;;;;4970190;28;19914;-71
2022/09/26 08:48:43;;;;;;;;;;;17.90;99.90;;;;;;4969778;28;20039;-70
2022/09/26 08:51:21;;;;;;;;;;;17.80;99.90;;;;;;4970051;28;20008;-69
2022/09/26 08:53:51;;;;;;;;;;;17.80;99.90;;;;;;4950466;28;19916;-72
2022/09/26 08:56:32;;;;;;;;;;;17.80;99.90;;;;;;4950461;28;19911;-68
2022/09/26 08:59:00;;;;;;;;;;;17.80;99.90;;;;;;4956420;28;19910;-71
2022/09/26 09:01:28;;;;;;;;;;;17.80;99.90;;;;;;4969124;28;20079;-69
2022/09/26 09:04:03;;;;;;;;;;;17.80;99.90;;;;;;4970995;28;20320;-69
2022/09/26 09:06:30;;;;;;;;;;;17.80;99.90;;;;;;4970057;28;19918;-68
2022/09/26 09:08:57;;;;;;;;;;;17.80;99.90;;;;;;4969429;28;19914;-68
2022/09/26 09:11:42;;;;;;;;;;;17.90;99.90;;;;;;4968305;28;19918;-72
2022/09/26 09:14:08;;;;;;;;;;;17.80;99.90;;;;;;4970512;28;19971;-70
2022/09/26 09:16:50;;;;;;;;;;;17.80;99.90;;;;;;4970178;28;19918;-71
2022/09/26 09:19:29;;;;;;;;;;;17.90;99.90;;;;;;4968893;28;20324;-71
2022/09/26 09:21:56;;;;;;;;;;;17.80;99.90;;;;;;4969058;28;19910;-69
2022/09/26 09:24:28;;;;;;;;;;;17.80;99.90;;;;;;4970678;28;20355;-69
2022/09/26 09:27:00;;;;;;;;;;;17.80;99.90;;;;;;4970601;28;19952;-71
2022/09/26 09:29:44;;;;;;;;;;;17.80;99.90;;;;;;4970589;28;19922;-70
2022/09/26 09:32:13;;;;;;;;;;;17.70;99.90;;;;;;4968971;28;19937;-70
2022/09/26 09:34:41;;;;;;;;;;;17.70;99.90;;;;;;4970668;28;19914;-68
2022/09/26 09:37:12;;;;;;;;;;;17.70;99.90;;;;;;4970226;28;19918;-70
2022/09/26 09:39:41;;;;;;;;;;;17.70;99.90;;;;;;4967059;28;19953;-71
2022/09/26 09:42:16;;;;;;;;;;;17.70;99.90;;;;;;4970021;28;19911;-70
2022/09/26 09:44:45;;;;;;;;;;;17.70;99.90;;;;;;4967774;28;19922;-70
2022/09/26 09:47:13;;;;;;;;;;;17.70;99.90;;;;;;4967496;28;19914;-74
2022/09/26 09:49:41;;;;;;;;;;;17.70;99.90;;;;;;4967266;28;19917;-70
2022/09/26 09:52:13;;;;;;;;;;;17.70;99.90;;;;;;4972800;28;19914;-72
2022/09/26 09:55:02;;;;;;;;;;;17.70;99.90;;;;;;4971745;28;19968;-71
2022/09/26 09:57:50;;;;;;;;;;;17.70;99.90;;;;;;4969863;28;19910;-72
2022/09/26 10:00:18;;;;;;;;;;;17.70;99.90;;;;;;4970022;28;19959;-77
2022/09/26 10:02:45;;;;;;;;;;;17.70;99.90;;;;;;4969555;28;20258;-73
2022/09/26 10:05:17;;;;;;;;;;;17.60;99.90;;;;;;4970186;28;20397;-74
2022/09/26 10:07:45;;;;;;;;;;;17.60;99.90;;;;;;4966842;28;19915;-75
2022/09/26 10:10:17;;;;;;;;;;;17.70;99.90;;;;;;4969181;28;19917;-71
2022/09/26 10:12:43;;;;;;;;;;;17.60;99.90;;;;;;4969359;28;19914;-70
2022/09/26 10:15:26;;;;;;;;;;;17.60;99.90;;;;;;4969614;28;20442;-70
2022/09/26 10:17:59;;;;;;;;;;;17.60;99.90;;;;;;4969855;28;19922;-74
2022/09/26 10:20:40;;;;;;;;;;;17.60;99.90;;;;;;4969645;28;20468;-75
2022/09/26 10:23:15;;;;;;;;;;;17.50;99.90;;;;;;4968438;28;20397;-76
2022/09/26 10:25:46;;;;;;;;;;;17.60;99.90;;;;;;4970063;28;19963;-76
2022/09/26 10:28:21;;;;;;;;;;;17.50;99.90;;;;;;4969988;28;20329;-75
2022/09/26 10:30:48;;;;;;;;;;;17.50;99.90;;;;;;4969972;28;20052;-74
2022/09/26 10:33:24;;;;;;;;;;;17.50;99.90;;;;;;4969751;28;19989;-74
2022/09/26 10:35:51;;;;;;;;;;;17.50;99.90;;;;;;4970226;28;19925;-77
2022/09/26 10:38:27;;;;;;;;;;;17.40;99.90;;;;;;4969610;28;19922;-72
2022/09/26 10:40:57;;;;;;;;;;;17.40;99.90;;;;;;4968673;28;19949;-74
2022/09/26 10:43:30;;;;;;;;;;;17.50;99.90;;;;;;4967877;28;19925;-75
2022/09/26 10:46:00;;;;;;;;;;;17.40;99.90;;;;;;4967857;28;19917;-76
2022/09/26 10:48:36;;;;;;;;;;;17.40;99.90;;;;;;4967720;28;19921;-76
2022/09/26 10:51:04;;;;;;;;;;;17.50;99.90;;;;;;4967104;28;20400;-74
2022/09/26 10:53:33;;;;;;;;;;;17.40;99.90;;;;;;4967443;28;19917;-76
2022/09/26 10:56:04;;;;;;;;;;;17.40;99.90;;;;;;4967639;28;19921;-74
2022/09/26 10:58:31;;;;;;;;;;;17.40;99.90;;;;;;4969467;28;19910;-72
2022/09/26 11:00:59;;;;;;;;;;;17.30;99.90;;;;;;4969823;28;19910;-75
2022/09/26 11:03:38;;;;;;;;;;;17.30;99.90;;;;;;4970956;28;19926;-75
2022/09/26 11:06:05;;;;;;;;;;;17.20;99.90;;;;;;4971584;28;19949;-77
2022/09/26 11:08:33;;;;;;;;;;;17.30;99.90;;;;;;4967926;28;20278;-70
2022/09/26 11:11:11;;;;;;;;;;;17.30;99.90;;;;;;4968980;28;19907;-70
2022/09/26 11:13:39;;;;;;;;;;;17.20;99.90;;;;;;4969010;28;19910;-70
2022/09/26 11:16:06;;;;;;;;;;;17.20;99.90;;;;;;4969323;28;19975;-72
2022/09/26 11:18:45;;;;;;;;;;;17.30;99.90;;;;;;4969383;28;19917;-75
2022/09/26 11:21:14;;;;;;;;;;;17.20;99.90;;;;;;4970221;28;20004;-70
2022/09/26 11:23:49;;;;;;;;;;;17.20;99.90;;;;;;4972135;28;20289;-73
2022/09/26 11:26:19;;;;;;;;;;;17.20;99.90;;;;;;4972323;28;19937;-76
2022/09/26 11:28:51;;;;;;;;;;;17.20;99.90;;;;;;4972050;28;19921;-73
2022/09/26 11:31:24;;;;;;;;;;;17.20;99.90;;;;;;4971637;28;20014;-74
2022/09/26 11:33:50;;;;;;;;;;;17.20;99.90;;;;;;4966154;28;19996;-70
2022/09/26 11:36:45;;;;;;;;;;;17.10;99.90;;;;;;4971933;28;19929;-72
2022/09/26 11:39:12;;;;;;;;;;;17.20;99.90;;;;;;4972364;28;19922;-69
2022/09/26 11:41:45;;;;;;;;;;;17.20;99.90;;;;;;4968152;28;19959;-72
2022/09/26 11:44:34;;;;;;;;;;;17.10;99.90;;;;;;4971709;28;19922;-69
2022/09/26 11:47:07;;;;;;;;;;;17.10;99.90;;;;;;4972609;28;19910;-71
2022/09/26 11:49:44;;;;;;;;;;;17.10;99.90;;;;;;4971806;28;19914;-69
2022/09/26 11:52:28;;;;;;;;;;;17.10;99.90;;;;;;4971668;28;19911;-71
2022/09/26 11:55:07;;;;;;;;;;;17.10;99.90;;;;;;4972499;28;19918;-69
2022/09/26 11:57:36;;;;;;;;;;;17.10;99.90;;;;;;4972603;28;20453;-70
2022/09/26 12:00:26;;;;;;;;;;;17.20;99.90;;;;;;4971919;28;19910;-74
2022/09/26 12:02:56;;;;;;;;;;;17.20;99.90;;;;;;4970921;28;19914;-72
2022/09/26 12:05:31;;;;;;;;;;;17.10;99.90;;;;;;4971780;28;19922;-69
2022/09/26 12:08:13;;;;;;;;;;;17.20;99.90;;;;;;4971662;28;20009;-75
2022/09/26 12:10:55;;;;;;;;;;;17.20;99.90;;;;;;4971067;28;19910;-75
2022/09/26 12:13:40;;;;;;;;;;;17.20;99.90;;;;;;4971830;28;20397;-76
2022/09/26 12:16:14;;;;;;;;;;;17.20;99.90;;;;;;4972314;28;19918;-70
2022/09/26 12:18:46;;;;;;;;;;;17.20;99.90;;;;;;4971791;28;19914;-73
2022/09/26 12:21:31;;;;;;;;;;;17.20;99.90;;;;;;4971990;28;19936;-73
2022/09/26 12:24:06;;;;;;;;;;;17.20;99.90;;;;;;4972052;28;19918;-72
2022/09/26 12:26:52;;;;;;;;;;;17.10;99.90;;;;;;4971485;28;19914;-75
2022/09/26 12:29:22;;;;;;;;;;;17.10;99.90;;;;;;4970648;28;19919;-74
2022/09/26 12:32:01;;;;;;;;;;;17.10;99.90;;;;;;4970321;28;19914;-72
2022/09/26 12:34:46;;;;;;;;;;;17.00;99.90;;;;;;4970748;28;20398;-74
2022/09/26 12:37:18;;;;;;;;;;;17.00;99.90;;;;;;4969549;28;19918;-72
2022/09/26 12:39:48;;;;;;;;;;;17.00;99.90;;;;;;4971191;28;20382;-76
2022/09/26 12:42:14;;;;;;;;;;;17.00;99.90;;;;;;4971126;28;19910;-76
2022/09/26 12:44:41;;;;;;;;;;;16.90;99.90;;;;;;4971530;28;19959;-73
2022/09/26 12:47:25;;;;;;;;;;;16.90;99.90;;;;;;4971017;28;19989;-72
2022/09/26 12:50:04;;;;;;;;;;;16.90;99.90;;;;;;4971195;28;19914;-78
2022/09/26 12:52:50;;;;;;;;;;;16.90;99.90;;;;;;4969715;28;19910;-77
2022/09/26 12:55:17;;;;;;;;;;;16.90;99.90;;;;;;4973469;28;20267;-75
2022/09/26 12:58:04;;;;;;;;;;;16.90;99.90;;;;;;4971583;28;20350;-76
2022/09/26 13:00:35;;;;;;;;;;;16.90;99.90;;;;;;4970972;28;19910;-76
2022/09/26 13:03:15;;;;;;;;;;;16.80;99.90;;;;;;4971313;28;19918;-74
2022/09/26 13:05:45;;;;;;;;;;;16.80;99.90;;;;;;4971791;28;19922;-76
2022/09/26 13:08:32;;;;;;;;;;;16.70;99.90;;;;;;4971215;28;19924;-72
2022/09/26 13:11:14;;;;;;;;;;;16.70;99.90;;;;;;4970282;28;19918;-74
2022/09/26 13:14:04;;;;;;;;;;;16.70;99.90;;;;;;4971682;28;19911;-77
2022/09/26 13:16:38;;;;;;;;;;;16.60;99.90;;;;;;4971746;28;19910;-73
2022/09/26 13:19:10;;;;;;;;;;;16.60;99.90;;;;;;4971662;28;20025;-74
2022/09/26 13:21:43;;;;;;;;;;;16.50;99.90;;;;;;4952084;28;19942;-76
2022/09/26 13:24:12;;;;;;;;;;;16.50;99.90;;;;;;4952210;29;19933;-73
2022/09/26 13:26:43;;;;;;;;;;;16.50;99.90;;;;;;4952471;29;20281;-75
2022/09/26 13:29:16;;;;;;;;;;;16.40;99.90;;;;;;4952064;28;20278;-74
2022/09/26 13:31:45;;;;;;;;;;;16.40;99.90;;;;;;4952076;28;19917;-74
2022/09/26 13:34:18;;;;;;;;;;;16.30;99.90;;;;;;4951981;29;19961;-75
2022/09/26 13:36:45;;;;;;;;;;;16.30;99.90;;;;;;4956772;28;19911;-74
2022/09/26 13:39:12;;;;;;;;;;;16.30;99.90;;;;;;4971195;28;19914;-77
2022/09/26 13:42:00;;;;;;;;;;;16.30;99.90;;;;;;4971324;28;19993;-77
2022/09/26 13:44:27;;;;;;;;;;;16.20;99.90;;;;;;4970610;28;19924;-72
2022/09/26 13:47:06;;;;;;;;;;;16.20;99.90;;;;;;4971452;28;20382;-72
2022/09/26 13:49:43;;;;;;;;;;;16.20;99.90;;;;;;4970935;28;19922;-71
2022/09/26 13:52:23;;;;;;;;;;;16.20;99.90;;;;;;4971196;28;19936;-72
2022/09/26 13:54:55;;;;;;;;;;;16.10;99.90;;;;;;4970860;28;19960;-72
2022/09/26 13:57:30;;;;;;;;;;;16.10;99.90;;;;;;4971108;28;19945;-72
2022/09/26 13:59:57;;;;;;;;;;;16.00;99.90;;;;;;4971438;28;19964;-73
2022/09/26 14:02:27;;;;;;;;;;;15.90;99.90;;;;;;4971127;28;19964;-72
2022/09/26 14:05:13;;;;;;;;;;;15.90;99.90;;;;;;4971154;28;19937;-75
2022/09/26 14:10:24;;;;;;;;;;;15.90;99.90;;;;;;4970686;28;19970;-76
2022/09/26 14:13:07;;;;;;;;;;;15.80;99.90;;;;;;4970923;28;19911;-72
2022/09/26 14:15:49;;;;;;;;;;;15.80;99.90;;;;;;4970744;28;19968;-72
2022/09/26 14:18:24;;;;;;;;;;;15.80;99.90;;;;;;4970707;28;19910;-72
2022/09/26 14:20:59;;;;;;;;;;;15.70;99.90;;;;;;4970537;28;19963;-73
2022/09/26 14:23:33;;;;;;;;;;;15.70;99.90;;;;;;4970915;28;19936;-75
2022/09/26 14:26:07;;;;;;;;;;;15.70;99.90;;;;;;4970746;28;19914;-72
2022/09/26 14:28:34;;;;;;;;;;;15.70;99.90;;;;;;4969382;28;20397;-76
2022/09/26 14:31:15;;;;;;;;;;;15.70;99.90;;;;;;4970543;28;19917;-74
2022/09/26 14:33:43;;;;;;;;;;;15.70;99.90;;;;;;4970653;28;20290;-73
2022/09/26 14:36:36;;;;;;;;;;;15.70;99.90;;;;;;4970566;28;20377;-73
2022/09/26 14:39:04;;;;;;;;;;;15.60;99.90;;;;;;4968515;28;20377;-72
2022/09/26 14:41:35;;;;;;;;;;;15.60;99.90;;;;;;4970179;28;19956;-72
2022/09/26 14:44:03;;;;;;;;;;;15.50;99.90;;;;;;4970027;28;19972;-73
2022/09/26 14:46:31;;;;;;;;;;;15.50;99.90;;;;;;4970151;28;19981;-75
2022/09/26 14:49:04;;;;;;;;;;;15.50;99.90;;;;;;4969656;28;19914;-72
2022/09/26 14:51:33;;;;;;;;;;;15.40;99.90;;;;;;4970380;28;19966;-73
2022/09/26 14:54:19;;;;;;;;;;;15.40;99.90;;;;;;4970121;28;19914;-72
2022/09/26 14:56:50;;;;;;;;;;;15.40;99.90;;;;;;4970140;28;19940;-74
2022/09/26 14:59:26;;;;;;;;;;;15.40;99.90;;;;;;4970279;28;19914;-74